Terminal Aerodrome Forecast
Issued by NWS Twin Cities, MN

Home | Current Version | Previous Version | Text Only | Print | Product List | Glossary Off
Versions: 1 2 3 4 5 6 7 8 9 10 11 12 13 14

000
FTUS43 KMPX 271100
TAFSTC
TAF
KSTC 271136Z 2712/2812 29013G18KT P6SM SCT025 BKN035 OVC060
     FM271400 32014G21KT P6SM VCSH BKN018 OVC027
     FM271800 34015G22KT P6SM -SHRA SCT025 BKN035
     FM280000 35014KT P6SM BKN045
     FM280200 33004KT P6SM SKC=

USA.gov is the U.S. government's official web portal to all federal, state and local government web resources and services.